CST,Max TemperatureF,Mean TemperatureF,Min TemperatureF,Max Dew PointF,MeanDew PointF,Min DewpointF,Max Humidity, Mean Humidity, Min Humidity, Max Sea Level PressureIn, Mean Sea Level PressureIn, Min Sea Level PressureIn, Max VisibilityMiles, Mean VisibilityMiles, Min VisibilityMiles, Max Wind SpeedMPH, Mean Wind SpeedMPH, Max Gust SpeedMPH,PrecipitationIn, CloudCover, Events, WindDirDegrees
2012-11-1,57,48,39,37,32,25,87,59,29,29.95,29.91,29.87,10,10,7,10,5,20,0.00,5,,288
2012-11-2,62,48,35,43,38,34,100,69,34,30.07,29.96,29.89,10,10,5,16,2,25,0.00,3,,315
2012-11-3,66,49,32,43,37,30,100,74,35,30.16,30.06,29.97,10,9,5,6,0,,0.00,2,,121
2012-11-4,53,45,35,45,42,36,100,87,71,30.10,30.06,29.99,10,10,7,14,2,20,0.00,5,,28
2012-11-5,59,46,32,43,33,27,100,81,33,30.15,30.08,30.01,10,7,0,5,0,,0.00,3,Fog,70
2012-11-6,53,45,37,46,41,36,100,82,58,30.02,29.97,29.90,10,10,1,5,1,,0.00,8,Rain,146
2012-11-7,48,42,35,46,43,36,100,91,82,30.09,29.97,29.88,10,9,4,8,1,,0.00,6,Rain,359
2012-11-8,57,44,32,45,34,30,100,82,36,30.23,30.18,30.09,10,6,0,8,1,,0.00,2,Fog,29
2012-11-9,64,47,30,43,36,28,100,80,37,30.33,30.25,30.20,10,7,0,8,1,,0.00,2,Fog,182
2012-11-10,73,53,33,45,39,34,100,74,31,30.37,30.29,30.24,10,10,7,9,1,,0.00,0,,185
2012-11-11,71,52,33,50,42,34,100,67,35,30.38,30.29,30.23,10,9,5,9,2,16,0.00,0,,188
2012-11-12,69,53,37,61,48,34,100,85,60,30.42,30.24,30.11,10,9,4,15,3,25,0.21,4,Rain,275
2012-11-13,51,40,28,36,30,27,100,79,43,30.48,30.43,30.38,10,9,1,8,2,,0.00,0,,12
2012-11-14,51,38,24,37,31,25,100,83,47,30.44,30.36,30.28,10,9,0,5,0,,0.00,2,Fog,80
2012-11-15,60,44,28,37,33,27,100,80,36,30.34,30.29,30.23,10,10,3,8,1,,0.00,0,,22
2012-11-16,60,43,26,37,32,27,100,76,34,30.40,30.34,30.30,10,9,5,7,1,,0.00,0,,2
2012-11-17,66,46,26,37,32,27,100,76,30,30.48,30.42,30.36,10,9,1,4,0,,0.00,0,,184
2012-11-18,64,46,28,39,32,27,100,71,32,30.46,30.40,30.34,10,10,7,6,1,,0.00,0,,176
2012-11-19,66,47,28,43,36,28,100,77,42,30.37,30.29,30.20,10,9,2,5,0,,0.00,0,,300
2012-11-20,68,52,37,46,42,36,100,72,40,30.20,30.14,30.07,10,9,4,7,0,,0.00,4,,340
2012-11-21,69,53,37,46,42,36,100,77,40,30.22,30.17,30.11,10,8,2,8,1,,0.00,1,,10
2012-11-22,69,50,32,45,38,30,100,77,38,30.28,30.20,30.14,10,8,0,8,1,,0.00,0,Fog,177
2012-11-23,57,45,33,50,38,30,100,80,54,30.15,30.10,30.03,10,9,5,10,2,20,0.00,3,,321
2012-11-24,42,33,24,30,26,21,93,69,49,30.21,30.16,30.12,10,10,7,10,5,20,0.00,2,,326
2012-11-25,53,37,21,28,26,21,100,73,35,30.16,30.09,30.01,10,10,7,13,1,20,0.00,0,,178
2012-11-26,59,42,26,46,33,25,100,74,36,30.60,30.15,30.10,10,9,4,9,0,16,0.00,6,Rain,167
2012-11-27,46,44,39,46,41,34,100,88,76,30.30,30.23,30.12,10,8,1,9,3,,0.00,8,Rain,351
2012-11-28,50,38,26,36,30,27,100,75,46,30.44,30.38,30.28,10,10,7,7,2,,0.00,3,,355
2012-11-29,57,40,23,36,30,21,100,80,41,30.44,30.37,30.30,10,9,7,10,1,17,0.00,0,,170
2012-11-30,60,44,28,45,37,28,100,83,52,30.35,30.30,30.23,10,8,5,12,2,18,0.00,1,,182